Time;durP1;ratioP1;P1;durP2;ratioP2;P2;SDS_P1;SDS_P2;PMS_P1;PMS_P2;Temp;Humidity;BMP_temperature;BMP_pressure;BME280_temperature;BME280_humidity;BME280_pressure;Samples;Min_cycle;Max_cycle;Signal;HPM_P1;HPM_P2
2023/12/09 00:01:06;;;;;;;1999.90;999.90;;;6.30;99.90;;;;;;4988650;28;20041;-71
2023/12/09 00:03:32;;;;;;;1999.90;999.90;;;6.30;99.90;;;;;;4993292;28;20356;-71
2023/12/09 00:05:58;;;;;;;1999.90;999.90;;;6.30;99.90;;;;;;4990124;28;20030;-71
2023/12/09 00:08:24;;;;;;;1999.90;999.90;;;6.30;99.90;;;;;;5007647;28;20034;-71
2023/12/09 00:10:50;;;;;;;1999.90;999.90;;;6.30;99.90;;;;;;4992319;28;20034;-71
2023/12/09 00:13:17;;;;;;;1999.90;999.90;;;6.30;99.90;;;;;;4993138;28;20071;-71
2023/12/09 00:15:42;;;;;;;1999.90;999.90;;;6.30;99.90;;;;;;4992069;28;20030;-70
2023/12/09 00:18:09;;;;;;;1999.90;999.90;;;6.30;99.90;;;;;;4994436;28;20034;-71
2023/12/09 00:20:35;;;;;;;1999.90;999.90;;;6.30;99.90;;;;;;4977116;28;20022;-70
2023/12/09 00:23:01;;;;;;;1999.90;999.90;;;6.30;99.90;;;;;;4991370;28;20113;-71
2023/12/09 00:25:26;;;;;;;1999.90;999.90;;;6.30;99.90;;;;;;5006043;28;20321;-71
2023/12/09 00:27:52;;;;;;;1999.90;999.90;;;6.40;99.90;;;;;;4993001;28;20029;-71
2023/12/09 00:30:18;;;;;;;1999.90;999.90;;;6.30;99.90;;;;;;4995418;28;20476;-71
2023/12/09 00:32:44;;;;;;;1999.90;999.90;;;6.30;99.90;;;;;;4991802;28;20109;-71
2023/12/09 00:35:10;;;;;;;1999.90;999.90;;;6.30;99.90;;;;;;4988969;28;20026;-71
2023/12/09 00:37:37;;;;;;;1999.90;999.90;;;6.30;99.90;;;;;;4991743;28;20038;-71
2023/12/09 00:40:03;;;;;;;1999.90;999.90;;;6.40;99.90;;;;;;4990949;28;20404;-70
2023/12/09 00:42:29;;;;;;;1999.90;999.90;;;6.30;99.90;;;;;;4994042;28;20038;-71
2023/12/09 00:44:54;;;;;;;1999.90;999.90;;;6.40;99.90;;;;;;4996729;28;20324;-71
2023/12/09 00:47:20;;;;;;;1999.90;999.90;;;6.30;99.90;;;;;;4992425;28;20028;-70
2023/12/09 00:49:45;;;;;;;1999.90;999.90;;;6.40;99.90;;;;;;4998567;28;20030;-70
2023/12/09 00:52:11;;;;;;;1999.90;999.90;;;6.50;99.90;;;;;;4999060;28;20023;-71
2023/12/09 00:54:37;;;;;;;1999.90;999.90;;;6.50;99.90;;;;;;4991532;28;20034;-71
2023/12/09 00:57:03;;;;;;;1999.90;999.90;;;6.50;99.90;;;;;;4974523;28;20129;-71
2023/12/09 00:59:29;;;;;;;1999.90;999.90;;;6.50;99.90;;;;;;4992159;28;20082;-71
2023/12/09 01:01:54;;;;;;;1999.90;999.90;;;6.50;99.90;;;;;;4992939;28;20039;-71
2023/12/09 01:04:21;;;;;;;1999.90;999.90;;;6.50;99.90;;;;;;4990934;28;20038;-71
2023/12/09 01:06:46;;;;;;;1999.90;999.90;;;6.50;99.90;;;;;;4986159;28;20413;-71
2023/12/09 01:09:13;;;;;;;1999.90;999.90;;;6.50;99.90;;;;;;4990747;28;20033;-71
2023/12/09 01:11:39;;;;;;;;;;;6.50;99.90;;;;;;5000813;28;20041;-71
2023/12/09 01:14:05;;;;;;;1999.90;999.90;;;6.50;99.90;;;;;;5001124;28;20361;-71
2023/12/09 01:16:31;;;;;;;1999.90;999.90;;;6.50;99.90;;;;;;4998153;28;20040;-71
2023/12/09 01:18:56;;;;;;;1999.90;999.90;;;6.40;99.90;;;;;;4992430;28;20034;-71
2023/12/09 01:21:22;;;;;;;1999.90;999.90;;;6.40;99.90;;;;;;5005409;28;20029;-71
2023/12/09 01:23:48;;;;;;;1999.90;999.90;;;6.40;99.90;;;;;;4990872;28;20037;-71
2023/12/09 01:26:13;;;;;;;1999.90;999.90;;;6.40;99.90;;;;;;4993514;28;20046;-71
2023/12/09 01:28:39;;;;;;;1999.90;999.90;;;6.40;99.90;;;;;;5022658;28;20028;-71
2023/12/09 01:31:06;;;;;;;1999.90;999.90;;;6.40;99.90;;;;;;4976580;28;20076;-71
2023/12/09 01:33:32;;;;;;;1999.90;999.90;;;6.30;99.90;;;;;;4993326;28;20367;-71
2023/12/09 01:35:58;;;;;;;1999.90;999.90;;;6.30;99.90;;;;;;4991588;28;20030;-70
2023/12/09 01:38:24;;;;;;;1999.90;999.90;;;6.20;99.90;;;;;;4994223;28;20079;-71
2023/12/09 01:40:56;;;;;;;1999.90;999.90;;;6.20;99.90;;;;;;4990711;28;20037;-71
2023/12/09 01:43:23;;;;;;;1999.90;999.90;;;6.20;99.90;;;;;;4994524;28;20045;-71
2023/12/09 01:45:57;;;;;;;1999.90;999.90;;;6.20;99.90;;;;;;4994975;28;20325;-71
2023/12/09 01:48:23;;;;;;;1999.90;999.90;;;6.20;99.90;;;;;;4996294;28;20031;-71
2023/12/09 01:50:50;;;;;;;1999.90;999.90;;;6.10;99.90;;;;;;4995200;28;20482;-71
2023/12/09 01:53:16;;;;;;;1999.90;999.90;;;6.10;99.90;;;;;;4998726;28;20264;-71
2023/12/09 01:55:42;;;;;;;1999.90;999.90;;;6.10;99.90;;;;;;5029934;28;20030;-71
2023/12/09 01:58:09;;;;;;;1999.90;999.90;;;6.00;99.90;;;;;;4993208;28;20033;-70
2023/12/09 02:00:37;;;;;;;1999.90;999.90;;;6.00;99.90;;;;;;4998248;28;20018;-71
2023/12/09 02:03:02;;;;;;;1999.90;999.90;;;6.00;99.90;;;;;;4993089;28;20035;-71
2023/12/09 02:05:28;;;;;;;1999.90;999.90;;;6.00;99.90;;;;;;4997805;28;20484;-71
2023/12/09 02:07:54;;;;;;;1999.90;999.90;;;6.00;99.90;;;;;;4996586;28;20324;-71
2023/12/09 02:10:20;;;;;;;1999.90;999.90;;;6.00;99.90;;;;;;4996564;28;20030;-70
2023/12/09 02:13:06;;;;;;;1999.90;999.90;;;6.00;99.90;;;;;;4997333;28;20027;-71
2023/12/09 02:15:51;;;;;;;1999.90;999.90;;;6.00;99.90;;;;;;4998481;28;20022;-71
2023/12/09 02:18:17;;;;;;;1999.90;999.90;;;6.00;99.90;;;;;;4995832;28;20026;-71
2023/12/09 02:20:42;;;;;;;1999.90;999.90;;;6.00;99.90;;;;;;5019033;28;20029;-71
2023/12/09 02:23:11;;;;;;;1999.90;999.90;;;6.00;99.90;;;;;;4993768;28;20030;-70
2023/12/09 02:25:38;;;;;;;1999.90;999.90;;;5.90;99.90;;;;;;4994536;28;20030;-71
2023/12/09 02:28:20;;;;;;;1999.90;999.90;;;6.00;99.90;;;;;;4993354;28;20037;-71
2023/12/09 02:31:07;;;;;;;1999.90;999.90;;;6.00;99.90;;;;;;4997719;28;20103;-71
2023/12/09 02:33:34;;;;;;;1999.90;999.90;;;5.90;99.90;;;;;;4993557;28;20033;-71
2023/12/09 02:36:03;;;;;;;1999.90;999.90;;;6.00;99.90;;;;;;4996800;28;20056;-71
2023/12/09 02:38:30;;;;;;;1999.90;999.90;;;5.90;99.90;;;;;;5001245;28;20038;-71
2023/12/09 02:40:57;;;;;;;1999.90;999.90;;;5.90;99.90;;;;;;4994130;28;20026;-71
2023/12/09 02:43:22;;;;;;;1999.90;999.90;;;5.90;99.90;;;;;;5003429;28;20078;-71
2023/12/09 02:45:48;;;;;;;1999.90;999.90;;;5.80;99.90;;;;;;4998396;28;20030;-71
2023/12/09 02:48:14;;;;;;;1999.90;999.90;;;5.80;99.90;;;;;;5008440;28;20032;-71
2023/12/09 02:50:40;;;;;;;1999.90;999.90;;;5.80;99.90;;;;;;4994285;28;20065;-70
2023/12/09 02:53:05;;;;;;;1999.90;999.90;;;5.80;99.90;;;;;;4993058;28;20556;-70
2023/12/09 02:55:31;;;;;;;1999.90;999.90;;;5.90;99.90;;;;;;4994976;28;20465;-71
2023/12/09 02:57:57;;;;;;;1999.90;999.90;;;5.90;99.90;;;;;;4997686;28;20022;-71
2023/12/09 03:00:22;;;;;;;1999.90;999.90;;;5.90;99.90;;;;;;4997656;28;20026;-71
2023/12/09 03:02:48;;;;;;;1999.90;999.90;;;5.90;99.90;;;;;;4996098;28;20030;-70
2023/12/09 03:05:14;;;;;;;1999.90;999.90;;;5.80;99.90;;;;;;5004026;28;20030;-70
2023/12/09 03:07:39;;;;;;;1999.90;999.90;;;5.80;99.90;;;;;;4977943;28;20026;-71
2023/12/09 03:10:06;;;;;;;1999.90;999.90;;;5.80;99.90;;;;;;4993986;28;20026;-71
2023/12/09 03:12:31;;;;;;;1999.90;999.90;;;5.80;99.90;;;;;;4993544;28;20018;-71
2023/12/09 03:14:57;;;;;;;1999.90;999.90;;;5.80;99.90;;;;;;4993330;28;20274;-71
2023/12/09 03:17:24;;;;;;;1999.90;999.90;;;5.80;99.90;;;;;;4996853;28;20057;-71
2023/12/09 03:19:50;;;;;;;1999.90;999.90;;;5.80;99.90;;;;;;4996643;28;20443;-71
2023/12/09 03:22:15;;;;;;;1999.90;999.90;;;5.80;99.90;;;;;;4993775;28;20273;-71
2023/12/09 03:24:44;;;;;;;1999.90;999.90;;;5.70;99.90;;;;;;5028510;28;20092;-71
2023/12/09 03:27:10;;;;;;;1999.90;999.90;;;5.80;99.90;;;;;;4993244;28;20046;-71
2023/12/09 03:29:36;;;;;;;1999.90;999.90;;;5.80;99.90;;;;;;4994622;28;20452;-71
2023/12/09 03:32:02;;;;;;;1999.90;999.90;;;5.80;99.90;;;;;;4996199;28;20054;-70
2023/12/09 03:34:27;;;;;;;1999.90;999.90;;;5.80;99.90;;;;;;4994491;28;20633;-71
2023/12/09 03:36:53;;;;;;;1999.90;999.90;;;5.80;99.90;;;;;;4996826;28;20030;-70
2023/12/09 03:39:19;;;;;;;1999.90;999.90;;;5.80;99.90;;;;;;4991226;28;20421;-71
2023/12/09 03:41:45;;;;;;;1999.90;999.90;;;5.80;99.90;;;;;;4992829;28;20033;-71
2023/12/09 03:44:11;;;;;;;1999.90;999.90;;;5.70;99.90;;;;;;4999104;28;20310;-71
2023/12/09 03:46:36;;;;;;;1999.90;999.90;;;5.60;99.90;;;;;;4993628;28;20044;-70
2023/12/09 03:49:02;;;;;;;1999.90;999.90;;;5.60;99.90;;;;;;4993901;28;20054;-71
2023/12/09 03:51:28;;;;;;;1999.90;999.90;;;5.60;99.90;;;;;;5006811;28;20034;-70
2023/12/09 03:53:54;;;;;;;1999.90;999.90;;;5.60;99.90;;;;;;4992595;28;20038;-70
2023/12/09 03:56:21;;;;;;;1999.90;999.90;;;5.60;99.90;;;;;;4995722;28;20030;-71
2023/12/09 03:58:48;;;;;;;1999.90;999.90;;;5.70;99.90;;;;;;4995285;28;20155;-71
2023/12/09 04:01:14;;;;;;;1999.90;999.90;;;5.70;99.90;;;;;;4992353;28;20034;-71
2023/12/09 04:03:39;;;;;;;1999.90;999.90;;;5.70;99.90;;;;;;5003741;28;20029;-71
2023/12/09 04:06:06;;;;;;;1999.90;999.90;;;5.80;99.90;;;;;;4990095;28;20035;-71
2023/12/09 04:08:32;;;;;;;1999.90;999.90;;;5.80;99.90;;;;;;4992789;28;20034;-70
2023/12/09 04:10:58;;;;;;;1999.90;999.90;;;5.80;99.90;;;;;;4976138;28;20046;-71
2023/12/09 04:13:23;;;;;;;1999.90;999.90;;;5.70;99.90;;;;;;4994088;28;20031;-71
2023/12/09 04:15:49;;;;;;;1999.90;999.90;;;5.70;99.90;;;;;;4993016;28;20042;-70
2023/12/09 04:18:17;;;;;;;1999.90;999.90;;;5.70;99.90;;;;;;4995285;28;20033;-71
2023/12/09 04:20:43;;;;;;;1999.90;999.90;;;5.70;99.90;;;;;;4994261;28;20053;-71
2023/12/09 04:23:08;;;;;;;1999.90;999.90;;;5.70;99.90;;;;;;4995300;28;20412;-70
2023/12/09 04:25:35;;;;;;;1999.90;999.90;;;5.60;99.90;;;;;;4992783;28;20054;-71
2023/12/09 04:28:01;;;;;;;1999.90;999.90;;;5.60;99.90;;;;;;4978163;28;20026;-71
2023/12/09 04:30:27;;;;;;;1999.90;999.90;;;5.60;99.90;;;;;;4991674;28;20041;-70
2023/12/09 04:32:53;;;;;;;1999.90;999.90;;;5.50;99.90;;;;;;4991904;28;20030;-70
2023/12/09 04:35:18;;;;;;;1999.90;999.90;;;5.50;99.90;;;;;;4999196;28;20045;-71
2023/12/09 04:37:44;;;;;;;1999.90;999.90;;;5.60;99.90;;;;;;4997025;28;20041;-71
2023/12/09 04:40:13;;;;;;;1999.90;999.90;;;5.60;99.90;;;;;;4998180;28;20022;-71
2023/12/09 04:42:39;;;;;;;1999.90;999.90;;;5.70;99.90;;;;;;4998436;28;20116;-71
2023/12/09 04:45:06;;;;;;;1999.90;999.90;;;5.70;99.90;;;;;;4991746;28;20033;-71
2023/12/09 04:47:33;;;;;;;1999.90;999.90;;;5.70;99.90;;;;;;4998083;28;20128;-71
2023/12/09 04:49:59;;;;;;;1999.90;999.90;;;5.70;99.90;;;;;;4979361;28;21308;-71
2023/12/09 04:52:25;;;;;;;1999.90;999.90;;;5.70;99.90;;;;;;4997224;28;20026;-71
2023/12/09 04:54:50;;;;;;;1999.90;999.90;;;5.70;99.90;;;;;;4998442;28;20041;-71
2023/12/09 04:57:17;;;;;;;1999.90;999.90;;;5.70;99.90;;;;;;4991018;28;20113;-71
2023/12/09 04:59:43;;;;;;;1999.90;999.90;;;5.70;99.90;;;;;;4991884;28;20314;-70
2023/12/09 05:02:09;;;;;;;1999.90;999.90;;;5.60;99.90;;;;;;4974136;28;20125;-70
2023/12/09 05:04:35;;;;;;;1999.90;999.90;;;5.60;99.90;;;;;;4991058;28;20126;-70
2023/12/09 05:07:01;;;;;;;1999.90;999.90;;;5.60;99.90;;;;;;4976255;28;20058;-70
2023/12/09 05:09:27;;;;;;;1999.90;999.90;;;5.60;99.90;;;;;;4991242;28;20083;-70
2023/12/09 05:11:53;;;;;;;1999.90;999.90;;;5.60;99.90;;;;;;4991073;28;20038;-71
2023/12/09 05:14:18;;;;;;;1999.90;999.90;;;5.60;99.90;;;;;;4994430;28;20033;-70
2023/12/09 05:16:44;;;;;;;1999.90;999.90;;;5.60;99.90;;;;;;4996562;28;20037;-70
2023/12/09 05:19:10;;;;;;;1999.90;999.90;;;5.70;99.90;;;;;;4990336;28;20038;-71
2023/12/09 05:21:36;;;;;;;1999.90;999.90;;;5.60;99.90;;;;;;5015353;28;20058;-71
2023/12/09 05:24:03;;;;;;;1999.90;999.90;;;5.60;99.90;;;;;;4995104;28;20379;-71
2023/12/09 05:26:29;;;;;;;1999.90;999.90;;;5.60;99.90;;;;;;5022036;28;20051;-70
2023/12/09 05:28:55;;;;;;;1999.90;999.90;;;5.70;99.90;;;;;;5000141;28;20022;-71
2023/12/09 05:31:23;;;;;;;1999.90;999.90;;;5.80;99.90;;;;;;5007109;28;20017;-71
2023/12/09 05:33:48;;;;;;;1999.90;999.90;;;5.90;99.90;;;;;;4990450;28;20068;-70
2023/12/09 05:36:15;;;;;;;1999.90;999.90;;;5.90;99.90;;;;;;4991463;28;20057;-71
2023/12/09 05:38:41;;;;;;;1999.90;999.90;;;5.90;99.90;;;;;;5005081;28;20087;-71
2023/12/09 05:41:08;;;;;;;1999.90;999.90;;;6.00;99.90;;;;;;4990823;28;20030;-71
2023/12/09 05:43:36;;;;;;;1999.90;999.90;;;6.10;99.90;;;;;;4990261;28;20038;-71
2023/12/09 05:46:02;;;;;;;1999.90;999.90;;;6.10;99.90;;;;;;4995904;28;20026;-71
2023/12/09 05:48:28;;;;;;;1999.90;999.90;;;6.10;99.90;;;;;;5023127;28;20026;-71
2023/12/09 05:50:54;;;;;;;1999.90;999.90;;;6.10;99.90;;;;;;4992114;28;20228;-71
2023/12/09 05:53:19;;;;;;;1999.90;999.90;;;6.20;99.90;;;;;;4990386;28;20309;-71
2023/12/09 05:55:45;;;;;;;1999.90;999.90;;;6.20;99.90;;;;;;4989964;28;20110;-71
2023/12/09 05:58:11;;;;;;;1999.90;999.90;;;6.30;99.90;;;;;;4991897;28;20033;-70
2023/12/09 06:00:37;;;;;;;1999.90;999.90;;;6.20;99.90;;;;;;4993371;28;20421;-70
2023/12/09 06:03:02;;;;;;;1999.90;999.90;;;6.30;99.90;;;;;;4997724;28;20411;-71
2023/12/09 06:05:28;;;;;;;1999.90;999.90;;;6.30;99.90;;;;;;4976296;28;20030;-71
2023/12/09 06:07:54;;;;;;;1999.90;999.90;;;6.30;99.90;;;;;;4990601;28;20027;-71
2023/12/09 06:10:19;;;;;;;1999.90;999.90;;;6.40;99.90;;;;;;4994259;28;20018;-70
2023/12/09 06:12:45;;;;;;;1999.90;999.90;;;6.30;99.90;;;;;;4992865;28;20028;-70
2023/12/09 06:15:11;;;;;;;1999.90;999.90;;;6.30;99.90;;;;;;4992323;28;20025;-71
2023/12/09 06:17:38;;;;;;;1999.90;999.90;;;6.40;99.90;;;;;;4989657;28;20321;-71
2023/12/09 06:20:07;;;;;;;1999.90;999.90;;;6.40;99.90;;;;;;4989958;28;20416;-70
2023/12/09 06:22:32;;;;;;;1999.90;999.90;;;6.40;99.90;;;;;;4979314;28;20062;-70
2023/12/09 06:24:58;;;;;;;1999.90;999.90;;;6.50;99.90;;;;;;4989488;28;20061;-71
2023/12/09 06:27:25;;;;;;;1999.90;999.90;;;6.40;99.90;;;;;;4994273;28;20041;-71
2023/12/09 06:29:51;;;;;;;;;;;6.40;99.90;;;;;;5014609;28;20103;-71
2023/12/09 06:32:17;;;;;;;1999.90;999.90;;;6.50;99.90;;;;;;4992922;28;19988;-70
2023/12/09 06:34:42;;;;;;;1999.90;999.90;;;6.50;99.90;;;;;;4989506;28;20425;-70
2023/12/09 06:37:09;;;;;;;1999.90;999.90;;;6.60;99.90;;;;;;4997937;28;20034;-70
2023/12/09 06:39:35;;;;;;;1999.90;999.90;;;6.60;99.90;;;;;;4994338;28;20028;-71
2023/12/09 06:42:00;;;;;;;1999.90;999.90;;;6.60;99.90;;;;;;4992422;28;20084;-71
2023/12/09 06:44:26;;;;;;;1999.90;999.90;;;6.60;99.90;;;;;;5008761;28;20285;-71
2023/12/09 06:46:52;;;;;;;1999.90;999.90;;;6.60;99.90;;;;;;5007676;28;20058;-71
2023/12/09 06:49:19;;;;;;;1999.90;999.90;;;6.60;99.90;;;;;;4978407;28;20444;-71
2023/12/09 06:51:49;;;;;;;1999.90;999.90;;;6.70;99.90;;;;;;4991661;28;20034;-70
2023/12/09 06:54:16;;;;;;;1999.90;999.90;;;6.60;99.90;;;;;;4993847;28;20119;-70
2023/12/09 06:56:42;;;;;;;1999.90;999.90;;;6.70;99.90;;;;;;4990804;28;20026;-70
2023/12/09 06:59:08;;;;;;;1999.90;999.90;;;6.70;99.90;;;;;;4993284;28;20041;-71
2023/12/09 07:01:34;;;;;;;1999.90;999.90;;;6.70;99.90;;;;;;4992795;28;20034;-71
2023/12/09 07:04:00;;;;;;;1999.90;999.90;;;6.70;99.90;;;;;;4997779;28;20034;-71
2023/12/09 07:06:28;;;;;;;1999.90;999.90;;;6.70;99.90;;;;;;4990937;28;20048;-70
2023/12/09 07:08:57;;;;;;;1999.90;999.90;;;6.70;99.90;;;;;;4993912;28;20033;-71
2023/12/09 07:11:23;;;;;;;1999.90;999.90;;;6.70;99.90;;;;;;4993514;28;20014;-71
2023/12/09 07:13:50;;;;;;;1999.90;999.90;;;6.70;99.90;;;;;;4992938;28;20109;-70
2023/12/09 07:16:16;;;;;;;1999.90;999.90;;;6.80;99.90;;;;;;4993481;28;20038;-71
2023/12/09 07:18:46;;;;;;;1999.90;999.90;;;6.70;99.90;;;;;;4992887;28;20041;-71
2023/12/09 07:21:16;;;;;;;1999.90;999.90;;;6.70;99.90;;;;;;4974995;28;20083;-70
2023/12/09 07:23:42;;;;;;;1999.90;999.90;;;6.70;99.90;;;;;;4992886;28;20109;-71
2023/12/09 07:26:08;;;;;;;1999.90;999.90;;;6.70;99.90;;;;;;4994989;28;20429;-71
2023/12/09 07:28:34;;;;;;;1999.90;999.90;;;6.70;99.90;;;;;;4992982;28;20037;-71
2023/12/09 07:31:00;;;;;;;1999.90;999.90;;;6.70;99.90;;;;;;4992799;28;20034;-71
2023/12/09 07:33:26;;;;;;;1999.90;999.90;;;6.70;99.90;;;;;;4993644;28;20042;-71
2023/12/09 07:35:52;;;;;;;1999.90;999.90;;;6.70;99.90;;;;;;4985402;28;20125;-71
2023/12/09 07:38:18;;;;;;;1999.90;999.90;;;6.70;99.90;;;;;;4981965;28;20034;-70
2023/12/09 07:40:48;;;;;;;1999.90;999.90;;;6.80;99.90;;;;;;5010537;28;20366;-70
2023/12/09 07:43:14;;;;;;;1999.90;999.90;;;6.80;99.90;;;;;;5013755;28;20382;-70
2023/12/09 07:45:40;;;;;;;1999.90;999.90;;;6.80;99.90;;;;;;4998544;28;20022;-70
2023/12/09 07:48:07;;;;;;;1999.90;999.90;;;6.80;99.90;;;;;;4992475;28;20018;-70
2023/12/09 07:50:34;;;;;;;1999.90;999.90;;;6.80;99.90;;;;;;4991231;28;20026;-70
2023/12/09 07:53:01;;;;;;;1999.90;999.90;;;6.80;99.90;;;;;;4990775;28;20037;-70
2023/12/09 07:55:27;;;;;;;1999.90;999.90;;;6.80;99.90;;;;;;4992453;28;20370;-71
2023/12/09 07:57:52;;;;;;;1999.90;999.90;;;6.90;99.90;;;;;;4992428;28;20030;-70
2023/12/09 08:00:18;;;;;;;1999.90;999.90;;;6.80;99.90;;;;;;4991465;28;20444;-71
2023/12/09 08:02:44;;;;;;;1999.90;999.90;;;6.90;99.90;;;;;;4975091;28;20101;-71
2023/12/09 08:05:10;;;;;;;1999.90;999.90;;;6.90;99.90;;;;;;4998051;28;20103;-70
2023/12/09 08:07:35;;;;;;;1999.90;999.90;;;6.90;99.90;;;;;;5022763;28;20030;-71
2023/12/09 08:10:01;;;;;;;1999.90;999.90;;;6.90;99.90;;;;;;4993242;28;20022;-71
2023/12/09 08:12:27;;;;;;;1999.90;999.90;;;7.00;99.90;;;;;;4993538;28;20022;-71
2023/12/09 08:14:53;;;;;;;1999.90;999.90;;;7.00;99.90;;;;;;4995666;28;20049;-70
2023/12/09 08:17:19;;;;;;;1999.90;999.90;;;7.00;99.90;;;;;;4994609;28;20405;-70
2023/12/09 08:19:45;;;;;;;1999.90;999.90;;;7.00;99.90;;;;;;4996804;28;20640;-70
2023/12/09 08:22:12;;;;;;;1999.90;999.90;;;7.00;99.90;;;;;;5006277;28;20030;-70
2023/12/09 08:24:37;;;;;;;;;;;7.10;99.90;;;;;;4993575;28;20125;-70
2023/12/09 08:27:03;;;;;;;1999.90;999.90;;;7.20;99.90;;;;;;4991514;28;20008;-70
2023/12/09 08:29:29;;;;;;;1999.90;999.90;;;7.10;99.90;;;;;;4998746;28;20058;-70
2023/12/09 08:31:56;;;;;;;1999.90;999.90;;;7.20;99.90;;;;;;4991326;28;20026;-70
2023/12/09 08:34:22;;;;;;;1999.90;999.90;;;7.20;99.90;;;;;;4995913;28;20109;-71
2023/12/09 08:36:48;;;;;;;1999.90;999.90;;;7.20;99.90;;;;;;4990330;28;20160;-70
2023/12/09 08:39:15;;;;;;;1999.90;999.90;;;7.20;99.90;;;;;;4995484;28;20034;-70
2023/12/09 08:41:40;;;;;;;1999.90;999.90;;;7.20;99.90;;;;;;5022831;28;20062;-71
2023/12/09 08:44:06;;;;;;;1999.90;999.90;;;7.30;99.90;;;;;;4989591;28;20115;-71
2023/12/09 08:46:32;;;;;;;1999.90;999.90;;;7.30;99.90;;;;;;4986765;28;20058;-70
2023/12/09 08:48:58;;;;;;;1999.90;999.90;;;7.30;99.90;;;;;;4991172;28;20026;-71
2023/12/09 08:51:24;;;;;;;1999.90;999.90;;;7.30;99.90;;;;;;4999383;28;20573;-70
2023/12/09 08:53:50;;;;;;;1999.90;999.90;;;7.40;99.90;;;;;;4989541;28;20033;-70
2023/12/09 08:56:16;;;;;;;1999.90;999.90;;;7.40;99.90;;;;;;5010490;28;20030;-70
2023/12/09 08:58:42;;;;;;;1999.90;999.90;;;7.40;99.90;;;;;;4990501;28;20271;-71
2023/12/09 09:01:09;;;;;;;1999.90;999.90;;;7.40;99.90;;;;;;5007663;28;20041;-71
2023/12/09 09:03:35;;;;;;;1999.90;999.90;;;7.50;99.90;;;;;;4980137;28;20022;-71
2023/12/09 09:06:01;;;;;;;1999.90;999.90;;;7.50;99.90;;;;;;5011068;28;20056;-71
2023/12/09 09:08:27;;;;;;;1999.90;999.90;;;7.50;99.90;;;;;;5031612;28;20031;-70
2023/12/09 09:10:53;;;;;;;1999.90;999.90;;;7.50;99.90;;;;;;4990000;28;20026;-71
2023/12/09 09:13:19;;;;;;;1999.90;999.90;;;7.60;99.90;;;;;;4968910;28;20392;-71
2023/12/09 09:15:45;;;;;;;1999.90;999.90;;;7.60;99.90;;;;;;5009338;28;20030;-71
2023/12/09 09:18:11;;;;;;;1999.90;999.90;;;7.60;99.90;;;;;;4978895;28;20409;-70
2023/12/09 09:20:37;;;;;;;1999.90;999.90;;;7.60;99.90;;;;;;4991619;28;20077;-71
2023/12/09 09:23:02;;;;;;;1999.90;999.90;;;7.60;99.90;;;;;;4989803;28;20021;-71
2023/12/09 09:25:28;;;;;;;1999.90;999.90;;;7.60;99.90;;;;;;4992952;28;20052;-70
2023/12/09 09:27:54;;;;;;;1999.90;999.90;;;7.60;99.90;;;;;;4973235;28;20338;-71
2023/12/09 09:30:20;;;;;;;1999.90;999.90;;;7.60;99.90;;;;;;4992126;28;20027;-71
2023/12/09 09:32:46;;;;;;;1999.90;999.90;;;7.60;99.90;;;;;;5015432;28;20493;-71
2023/12/09 09:35:12;;;;;;;1999.90;999.90;;;7.70;99.90;;;;;;4989879;28;20023;-70
2023/12/09 09:37:38;;;;;;;1999.90;999.90;;;7.70;99.90;;;;;;5029977;28;20042;-70
2023/12/09 09:40:05;;;;;;;1999.90;999.90;;;7.70;99.90;;;;;;4989896;28;20034;-71
2023/12/09 09:42:36;;;;;;;1999.90;999.90;;;7.70;99.90;;;;;;4999395;28;20079;-71
2023/12/09 09:45:21;;;;;;;1999.90;999.90;;;7.80;99.90;;;;;;5007029;28;20030;-70
2023/12/09 09:47:49;;;;;;;1999.90;999.90;;;7.80;99.90;;;;;;4992262;28;20329;-71
2023/12/09 09:50:21;;;;;;;1999.90;999.90;;;7.80;99.90;;;;;;4989601;28;20030;-71
2023/12/09 09:52:48;;;;;;;1999.90;999.90;;;7.90;99.90;;;;;;4990055;28;20026;-70
2023/12/09 09:55:16;;;;;;;1999.90;999.90;;;7.90;99.90;;;;;;4990161;28;20038;-70
2023/12/09 09:57:43;;;;;;;1999.90;999.90;;;7.90;99.90;;;;;;4971267;28;20053;-71
2023/12/09 10:00:16;;;;;;;;;;;7.90;99.90;;;;;;4990438;28;20451;-71
2023/12/09 10:02:51;;;;;;;1999.90;999.90;;;8.00;99.90;;;;;;4996576;28;19916;-71
2023/12/09 10:05:17;;;;;;;1999.90;999.90;;;8.00;99.90;;;;;;5000496;28;20062;-71
2023/12/09 10:07:47;;;;;;;1999.90;999.90;;;8.00;99.90;;;;;;4993620;28;20027;-70
2023/12/09 10:10:14;;;;;;;1999.90;999.90;;;8.00;99.90;;;;;;5004384;28;20317;-70
2023/12/09 10:12:40;;;;;;;1999.90;999.90;;;8.00;99.90;;;;;;4993705;28;20072;-71
2023/12/09 10:15:07;;;;;;;1999.90;999.90;;;8.00;99.90;;;;;;4994360;28;20031;-71
2023/12/09 10:17:34;;;;;;;1999.90;999.90;;;8.00;99.90;;;;;;5003061;28;20040;-71
2023/12/09 10:20:00;;;;;;;1999.90;999.90;;;8.10;99.90;;;;;;5001832;28;20417;-70
2023/12/09 10:22:27;;;;;;;1999.90;999.90;;;8.10;99.90;;;;;;4974748;28;20137;-71
2023/12/09 10:24:54;;;;;;;1999.90;999.90;;;8.10;99.90;;;;;;5002030;28;20448;-71
2023/12/09 10:27:24;;;;;;;1999.90;999.90;;;8.10;99.90;;;;;;4997747;28;20504;-71
2023/12/09 10:29:54;;;;;;;1999.90;999.90;;;8.20;99.90;;;;;;4996376;28;20356;-71
2023/12/09 10:32:21;;;;;;;1999.90;999.90;;;8.20;99.90;;;;;;4992398;28;20034;-70
2023/12/09 10:34:50;;;;;;;1999.90;999.90;;;8.30;99.90;;;;;;4992957;28;20306;-71
2023/12/09 10:37:18;;;;;;;1999.90;999.90;;;8.30;99.90;;;;;;4993439;28;20038;-71
2023/12/09 10:39:45;;;;;;;1999.90;999.90;;;8.40;99.90;;;;;;4993419;28;20026;-71
2023/12/09 10:42:12;;;;;;;1999.90;999.90;;;8.40;99.90;;;;;;4992375;28;20026;-71
2023/12/09 10:44:38;;;;;;;1999.90;999.90;;;8.50;99.90;;;;;;4995996;28;20034;-70
2023/12/09 10:47:04;;;;;;;1999.90;999.90;;;8.50;99.90;;;;;;4992981;28;20318;-71
2023/12/09 10:49:31;;;;;;;1999.90;999.90;;;8.50;99.90;;;;;;4976074;28;20039;-71
2023/12/09 10:51:57;;;;;;;1999.90;999.90;;;8.50;99.90;;;;;;4998375;28;20432;-72
2023/12/09 10:54:23;;;;;;;1999.90;999.90;;;8.50;99.90;;;;;;4992229;28;20046;-71
2023/12/09 10:56:49;;;;;;;1999.90;999.90;;;8.50;99.90;;;;;;4991411;28;20110;-71
2023/12/09 10:59:19;;;;;;;1999.90;999.90;;;8.50;99.90;;;;;;5006307;28;20137;-71
2023/12/09 11:01:45;;;;;;;1999.90;999.90;;;8.60;99.90;;;;;;4992820;28;20023;-71
2023/12/09 11:04:14;;;;;;;1999.90;999.90;;;8.50;99.90;;;;;;4991448;28;20120;-71
2023/12/09 11:06:46;;;;;;;1999.90;999.90;;;8.60;99.90;;;;;;4989744;28;20038;-71
2023/12/09 11:09:14;;;;;;;1999.90;999.90;;;8.60;99.90;;;;;;4990984;28;20033;-71
2023/12/09 11:11:43;;;;;;;1999.90;999.90;;;8.60;99.90;;;;;;4993608;28;20026;-71
2023/12/09 11:14:12;;;;;;;1999.90;999.90;;;8.60;99.90;;;;;;5003534;28;20041;-71
2023/12/09 11:16:42;;;;;;;1999.90;999.90;;;8.60;99.90;;;;;;4987800;28;20037;-70
2023/12/09 11:19:15;;;;;;;1999.90;999.90;;;8.60;99.90;;;;;;4997425;28;20034;-71
2023/12/09 11:21:45;;;;;;;1999.90;999.90;;;8.60;99.90;;;;;;4994871;28;20068;-71
2023/12/09 11:24:11;;;;;;;1999.90;999.90;;;8.60;99.90;;;;;;4992125;28;20516;-71
2023/12/09 11:26:40;;;;;;;1999.90;999.90;;;8.70;99.90;;;;;;4988497;28;20076;-71
2023/12/09 11:29:08;;;;;;;1999.90;999.90;;;8.70;99.90;;;;;;4992482;28;20038;-71
2023/12/09 11:31:40;;;;;;;1999.90;999.90;;;8.70;99.90;;;;;;4979333;28;20446;-71
2023/12/09 11:34:16;;;;;;;1999.90;999.90;;;8.80;99.90;;;;;;4992004;28;20413;-71
2023/12/09 11:36:44;;;;;;;1999.90;999.90;;;8.80;99.90;;;;;;4994993;28;20038;-71
2023/12/09 11:39:19;;;;;;;1999.90;999.90;;;8.70;99.90;;;;;;4991231;28;20062;-71
2023/12/09 11:41:48;;;;;;;1999.90;999.90;;;8.80;99.90;;;;;;4994641;28;20042;-70
2023/12/09 11:44:14;;;;;;;1999.90;999.90;;;8.80;99.90;;;;;;4992452;28;20022;-71
2023/12/09 11:46:40;;;;;;;1999.90;999.90;;;8.80;99.90;;;;;;5006968;28;20027;-71
2023/12/09 11:49:07;;;;;;;1999.90;999.90;;;8.70;99.90;;;;;;5002923;28;20068;-72
2023/12/09 11:51:36;;;;;;;1999.90;999.90;;;8.80;99.90;;;;;;4989442;28;20113;-71
2023/12/09 11:54:07;;;;;;;1999.90;999.90;;;8.80;99.90;;;;;;4998089;28;20088;-71
2023/12/09 11:56:34;;;;;;;1999.90;999.90;;;8.80;99.90;;;;;;5003128;28;20054;-71
2023/12/09 11:59:00;;;;;;;1999.90;999.90;;;8.70;99.90;;;;;;4991847;28;20363;-71
2023/12/09 12:01:31;;;;;;;1999.90;999.90;;;8.80;99.90;;;;;;4991981;28;20045;-71
2023/12/09 12:03:58;;;;;;;1999.90;999.90;;;8.70;99.90;;;;;;4981355;28;20037;-71
2023/12/09 12:06:24;;;;;;;1999.90;999.90;;;8.70;99.90;;;;;;4991051;28;20466;-71
2023/12/09 12:08:52;;;;;;;1999.90;999.90;;;8.70;99.90;;;;;;5008356;28;20026;-71